createdAt,value
2022-08-01T00:07:51.299Z,79.63
2022-08-01T00:17:53.561Z,80.26
2022-08-01T00:27:55.839Z,80.60
2022-08-01T00:37:58.283Z,81.02
2022-08-01T00:48:00.561Z,81.68
2022-08-01T00:58:05.461Z,82.40
2022-08-01T01:08:20.562Z,83.24
2022-08-01T01:18:39.048Z,83.31
2022-08-01T01:29:22.202Z,83.69
2022-08-01T01:39:27.026Z,83.97
2022-08-01T01:49:31.314Z,84.50
2022-08-01T01:59:36.503Z,84.81
2022-08-01T02:09:43.395Z,85.73
2022-08-01T02:19:46.932Z,86.71
2022-08-01T02:29:53.837Z,87.01
2022-08-01T02:39:57.139Z,87.28
2022-08-01T02:50:01.310Z,88.00
2022-08-01T03:00:03.969Z,88.43
2022-08-01T03:10:07.176Z,88.87
2022-08-01T03:20:11.670Z,89.35
2022-08-01T03:30:15.012Z,89.55
2022-08-01T03:40:29.545Z,90.11
2022-08-01T03:50:35.063Z,90.52
2022-08-01T04:00:40.507Z,90.31
2022-08-01T04:10:43.117Z,90.86
2022-08-01T04:20:48.017Z,91.07
2022-08-01T04:30:53.334Z,91.11
2022-08-01T04:40:57.685Z,91.69
2022-08-01T04:51:00.371Z,91.82
2022-08-01T05:01:02.642Z,91.56
2022-08-01T05:11:05.054Z,90.75
2022-08-01T05:21:07.599Z,90.02
2022-08-01T05:31:09.958Z,89.70
2022-08-01T05:41:12.164Z,89.10
2022-08-01T05:51:14.547Z,87.77
2022-08-01T06:01:17.319Z,86.26
2022-08-01T06:11:19.518Z,83.72
2022-08-01T06:21:21.845Z,81.48
2022-08-01T06:31:24.133Z,78.54
2022-08-01T06:41:26.388Z,75.43
2022-08-01T06:51:28.885Z,73.43
2022-08-01T07:01:35.091Z,72.07
2022-08-01T07:11:37.566Z,69.40
2022-08-01T07:21:41.856Z,68.23
2022-08-01T07:31:44.361Z,65.08
2022-08-01T07:42:05.583Z,62.33
2022-08-01T07:52:10.669Z,61.36
2022-08-01T08:02:12.986Z,57.54
2022-08-01T08:12:15.246Z,55.57
2022-08-01T08:22:17.649Z,52.43
2022-08-01T08:32:20.049Z,51.47
2022-08-01T08:42:27.916Z,50.63
2022-08-01T08:52:32.298Z,49.81
2022-08-01T09:02:47.330Z,47.07
2022-08-01T09:13:14.359Z,48.81
2022-08-01T09:23:53.804Z,47.24
2022-08-01T09:34:00.023Z,48.38
2022-08-01T09:44:03.191Z,45.81
2022-08-01T09:54:07.981Z,45.59
2022-08-01T10:04:19.416Z,43.43
2022-08-01T10:14:24.205Z,42.87
2022-08-01T10:24:30.543Z,42.10
2022-08-01T10:34:35.611Z,41.62
2022-08-01T10:44:40.464Z,42.31
2022-08-01T10:54:52.251Z,41.33
2022-08-01T11:05:23.996Z,38.66
2022-08-01T11:15:29.274Z,40.39
2022-08-01T11:26:03.107Z,37.24
2022-08-01T11:36:42.815Z,38.66
2022-08-01T11:46:51.977Z,38.47
2022-08-01T11:56:59.463Z,38.26
2022-08-01T12:07:15.130Z,36.18
2022-08-01T12:17:19.955Z,37.52
2022-08-01T12:27:28.179Z,32.67
2022-08-01T12:37:30.982Z,34.48
2022-08-01T12:47:33.794Z,34.31
2022-08-01T12:57:45.427Z,31.23
2022-08-01T13:07:51.673Z,31.08
2022-08-01T13:17:56.328Z,30.42
2022-08-01T13:28:22.718Z,29.96
2022-08-01T13:38:45.764Z,30.35
2022-08-01T13:48:50.687Z,32.31
2022-08-01T13:58:54.046Z,31.87
2022-08-01T14:08:56.805Z,29.13
2022-08-01T14:18:59.678Z,26.83
2022-08-01T14:29:03.315Z,30.91
2022-08-01T14:39:14.833Z,29.42
2022-08-01T14:49:18.141Z,28.64
2022-08-01T14:59:21.607Z,34.15
2022-08-01T15:09:24.623Z,31.66
2022-08-01T15:19:27.146Z,36.01
2022-08-01T15:29:30.009Z,36.41
2022-08-01T15:39:34.399Z,35.51
2022-08-01T15:49:38.503Z,38.44
2022-08-01T15:59:42.017Z,36.27
2022-08-01T16:09:48.217Z,37.01
2022-08-01T16:19:52.415Z,38.85
2022-08-01T16:29:55.473Z,36.93
2022-08-01T16:39:59.527Z,39.15
2022-08-01T16:50:02.452Z,43.39
2022-08-01T17:00:09.034Z,45.70
2022-08-01T17:10:14.623Z,45.46
2022-08-01T17:20:17.754Z,47.02
2022-08-01T17:30:22.155Z,47.89
2022-08-01T17:40:39.714Z,48.67
2022-08-01T17:50:45.406Z,49.36
2022-08-01T18:00:49.223Z,49.47
2022-08-01T18:10:52.180Z,50.12
2022-08-01T18:20:54.867Z,48.09
2022-08-01T18:31:01.068Z,50.81
2022-08-01T18:41:03.980Z,52.58
2022-08-01T18:51:11.509Z,54.55
2022-08-01T19:01:14.933Z,56.43
2022-08-01T19:11:17.281Z,57.69
2022-08-01T19:21:20.152Z,59.47
2022-08-01T19:31:28.559Z,61.35
2022-08-01T19:41:33.636Z,63.97
2022-08-01T19:51:53.324Z,66.83
2022-08-01T20:01:57.319Z,68.97
2022-08-01T20:12:00.081Z,70.82
2022-08-01T20:22:07.713Z,71.90
2022-08-01T20:32:10.440Z,73.09
2022-08-01T20:42:14.845Z,73.13
2022-08-01T20:52:17.751Z,72.87
2022-08-01T21:03:01.629Z,73.59
2022-08-01T21:13:07.923Z,73.06
2022-08-01T21:23:22.597Z,73.27
2022-08-01T21:33:27.337Z,74.66
2022-08-01T21:43:33.156Z,75.48
2022-08-01T21:54:10.374Z,75.47
2022-08-01T22:04:18.102Z,75.40
2022-08-01T22:14:22.092Z,77.72
2022-08-01T22:24:25.435Z,79.48
2022-08-01T22:34:28.124Z,79.87
2022-08-01T22:44:43.452Z,81.35
2022-08-01T22:55:01.238Z,82.43
2022-08-01T23:05:08.474Z,82.87
2022-08-01T23:15:11.997Z,83.77
2022-08-01T23:25:15.845Z,84.21
2022-08-01T23:35:18.291Z,86.01
2022-08-01T23:45:21.848Z,86.39
2022-08-01T23:55:36.923Z,87.18
